Terminal Aerodrome Forecast
Issued by NWS Cleveland, OH

Home | Current Version | Previous Version | Graphics & Text | Print | Product List | Glossary Off
Versions: 1 2 3 4 5 6 7 8 9 10 11 12 13 14 15 16 17 18 19

806
FTUS41 KCLE 041739
TAFCAK
TAF
KCAK 041739Z 0418/0518 28010KT P6SM BKN015 OVC025
     FM041900 28010KT P6SM SCT015 OVC025
      TEMPO 0419/0422 BKN015 OVC025
     FM050700 28008KT P6SM SCT025
      TEMPO 0507/0511 BKN025
     FM051600 27008KT P6SM BKN035=

USA.gov is the U.S. government's official web portal to all federal, state and local government web resources and services.